Terminal Aerodrome Forecast
Issued by NWS Wilmington, OH

Current Version | Previous Version | Text Only | Print | Product List | Glossary Off
Versions: 1 2 3 4 5 6 7 8 9 10 11 12 13 14 15 16 17 18 19 20 21 22 23 24 25

462
FTUS41 KILN 232339
TAFCVG
TAF
KCVG 232339Z 2400/2506 15008KT P6SM OVC100
     FM240500 19008KT P6SM BKN100 WS020/21045KT
     FM241300 20011KT P6SM OVC035
     FM242000 21012G22KT P6SM OVC035
     FM250000 19015KT P6SM OVC035=

USA.gov is the U.S. government's official web portal to all federal, state and local government web resources and services.